Time;durP1;ratioP1;P1;durP2;ratioP2;P2;SDS_P1;SDS_P2;PMS_P1;PMS_P2;Temp;Humidity;BMP_temperature;BMP_pressure;BME280_temperature;BME280_humidity;BME280_pressure;Samples;Min_cycle;Max_cycle;Signal;HPM_P1;HPM_P2
2023/06/28 06:09:10;;;;;;;1.90;1.77;;;19.60;91.30;;;;;;4935806;29;20403;-62
2023/06/28 06:11:36;;;;;;;1.77;1.67;;;19.70;90.60;;;;;;4941606;29;20511;-63
2023/06/28 06:14:01;;;;;;;1.63;1.53;;;19.70;90.60;;;;;;4956148;29;20204;-63
2023/06/28 06:16:27;;;;;;;4.70;3.20;;;19.90;90.40;;;;;;4956188;29;20193;-62
2023/06/28 06:18:53;;;;;;;2.10;1.83;;;19.90;90.30;;;;;;4956094;29;20201;-63
2023/06/28 06:21:18;;;;;;;1.93;1.83;;;20.00;90.20;;;;;;4956496;28;20527;-62
2023/06/28 06:23:44;;;;;;;1.63;1.53;;;20.00;89.60;;;;;;4955040;29;20200;-63
2023/06/28 06:26:09;;;;;;;1.63;1.53;;;20.00;90.20;;;;;;4956045;29;20177;-63
2023/06/28 06:28:35;;;;;;;2.10;1.53;;;20.10;90.00;;;;;;4955787;29;20639;-63
2023/06/28 06:31:01;;;;;;;1.83;1.70;;;20.10;89.50;;;;;;4955318;29;20271;-63
2023/06/28 06:33:26;;;;;;;2.13;1.93;;;20.20;90.10;;;;;;4954965;29;20193;-62
2023/06/28 06:35:52;;;;;;;1.40;1.30;;;20.30;89.70;;;;;;4954902;28;20200;-63
2023/06/28 06:38:17;;;;;;;1.90;1.80;;;20.40;89.20;;;;;;4954841;29;20296;-62
2023/06/28 06:40:44;;;;;;;1.43;1.33;;;20.40;89.10;;;;;;4955274;29;20272;-63
2023/06/28 06:43:10;;;;;;;2.00;1.90;;;20.40;89.10;;;;;;4954992;28;20197;-62
2023/06/28 06:45:36;;;;;;;4.43;3.00;;;20.50;88.50;;;;;;4955257;29;20887;-63
2023/06/28 06:48:01;;;;;;;2.00;1.80;;;20.50;88.50;;;;;;4955271;29;20220;-62
2023/06/28 06:50:27;;;;;;;1.73;1.60;;;20.60;88.30;;;;;;4944150;29;20186;-63
2023/06/28 06:52:52;;;;;;;2.67;1.93;;;20.60;88.40;;;;;;4940426;29;20280;-62
2023/06/28 06:55:18;;;;;;;1.27;1.27;;;20.70;88.40;;;;;;4954751;29;20532;-63
2023/06/28 06:57:44;;;;;;;2.73;1.70;;;20.70;87.30;;;;;;4955270;28;20228;-62
2023/06/28 07:00:10;;;;;;;2.00;1.60;;;20.70;88.50;;;;;;4954880;29;20853;-63
2023/06/28 07:02:36;;;;;;;5.23;3.00;;;20.70;87.30;;;;;;4951310;29;20251;-62
2023/06/28 07:05:01;;;;;;;1.83;1.73;;;20.80;86.40;;;;;;4955233;29;20508;-62
2023/06/28 07:07:27;;;;;;;1.27;1.23;;;20.80;86.70;;;;;;4955362;29;20182;-63
2023/06/28 07:09:52;;;;;;;2.10;1.90;;;20.80;86.70;;;;;;4955204;29;20196;-62
2023/06/28 07:12:18;;;;;;;2.00;1.83;;;20.80;86.50;;;;;;4954805;29;20257;-63
2023/06/28 07:14:43;;;;;;;1.50;1.50;;;20.80;84.00;;;;;;4953180;29;20671;-62
2023/06/28 07:17:09;;;;;;;1.60;1.50;;;20.80;85.20;;;;;;4953097;29;20544;-63
2023/06/28 07:19:35;;;;;;;1.90;1.70;;;20.70;86.80;;;;;;4940149;29;20202;-62
2023/06/28 07:22:01;;;;;;;1.50;1.40;;;20.70;86.80;;;;;;4954428;28;20267;-63
2023/06/28 07:24:26;;;;;;;2.03;1.77;;;20.60;87.10;;;;;;4954649;28;20535;-63
2023/06/28 07:26:52;;;;;;;1.13;1.03;;;20.60;87.70;;;;;;4955247;29;20208;-61
2023/06/28 07:29:18;;;;;;;1.57;1.47;;;20.60;87.90;;;;;;4955338;29;20584;-65
2023/06/28 07:31:43;;;;;;;1.70;1.37;;;20.70;87.70;;;;;;4954669;28;20173;-61
2023/06/28 07:34:09;;;;;;;2.20;1.70;;;20.80;87.50;;;;;;4954644;29;20555;-62
2023/06/28 07:36:34;;;;;;;2.90;2.50;;;20.80;86.90;;;;;;4953802;29;20283;-63
2023/06/28 07:39:00;;;;;;;2.63;2.43;;;20.90;86.60;;;;;;4955110;29;20669;-63
2023/06/28 07:41:26;;;;;;;1.47;1.37;;;21.00;87.00;;;;;;4944426;28;20193;-62
2023/06/28 07:43:52;;;;;;;2.00;1.80;;;21.10;85.80;;;;;;4947214;29;20206;-65
2023/06/28 07:46:17;;;;;;;2.13;1.93;;;21.20;85.30;;;;;;4935461;29;20190;-62
2023/06/28 07:48:43;;;;;;;6.77;1.27;;;21.20;84.80;;;;;;4935178;29;20608;-63
2023/06/28 07:51:09;;;;;;;1.70;1.60;;;21.20;85.20;;;;;;4935786;29;20229;-62
2023/06/28 07:53:35;;;;;;;1.40;1.30;;;21.20;85.60;;;;;;4941261;29;20205;-62
2023/06/28 07:56:01;;;;;;;1.70;1.60;;;21.20;86.20;;;;;;4954813;29;20454;-62
2023/06/28 07:58:27;;;;;;;3.93;1.60;;;21.30;86.00;;;;;;4941059;29;20600;-62
2023/06/28 08:00:53;;;;;;;1.67;1.50;;;21.30;84.90;;;;;;4953540;29;20418;-62
2023/06/28 08:03:19;;;;;;;1.37;1.27;;;21.30;85.10;;;;;;4947551;28;20239;-63
2023/06/28 08:05:45;;;;;;;1.70;1.60;;;21.40;84.80;;;;;;4948453;29;20180;-63
2023/06/28 08:08:11;;;;;;;1.83;1.73;;;21.50;84.30;;;;;;4957593;29;20418;-62
2023/06/28 08:10:36;;;;;;;1.07;1.07;;;21.50;84.70;;;;;;4949876;29;20199;-62
2023/06/28 08:13:02;;;;;;;2.00;1.80;;;21.50;84.50;;;;;;4938112;29;20198;-63
2023/06/28 08:15:27;;;;;;;1.60;1.47;;;21.60;83.80;;;;;;4970402;28;20506;-64
2023/06/28 08:17:53;;;;;;;1.30;1.30;;;21.80;83.60;;;;;;4956851;29;20204;-64
2023/06/28 08:20:19;;;;;;;1.73;1.63;;;21.80;83.10;;;;;;4958524;29;20598;-63
2023/06/28 08:22:44;;;;;;;1.60;1.50;;;21.80;83.20;;;;;;4957972;28;20196;-60
2023/06/28 08:25:10;;;;;;;1.53;1.40;;;21.80;82.90;;;;;;4957720;29;20537;-61
2023/06/28 08:27:36;;;;;;;4.10;2.20;;;21.90;83.30;;;;;;4958197;29;20211;-60
2023/06/28 08:30:02;;;;;;;1.60;1.50;;;22.10;82.50;;;;;;4958563;28;20654;-62
2023/06/28 08:32:27;;;;;;;1.33;1.20;;;22.20;81.70;;;;;;4958207;29;20423;-62
2023/06/28 08:34:53;;;;;;;1.70;1.60;;;22.40;80.10;;;;;;4958313;29;20207;-59
2023/06/28 08:37:19;;;;;;;1.70;1.60;;;22.60;80.00;;;;;;4957885;29;20273;-63
2023/06/28 08:39:44;;;;;;;1.57;1.47;;;22.90;79.40;;;;;;4958324;29;20173;-60
2023/06/28 08:42:10;;;;;;;1.90;1.80;;;23.20;77.60;;;;;;4957756;29;20706;-59
2023/06/28 08:44:38;;;;;;;2.53;1.90;;;23.50;76.60;;;;;;4957892;29;20207;-64
2023/06/28 08:47:05;;;;;;;1.60;1.50;;;23.80;75.40;;;;;;4957881;29;20478;-63
2023/06/28 08:49:32;;;;;;;2.63;2.27;;;23.90;75.70;;;;;;4958068;28;20483;-61
2023/06/28 08:51:57;;;;;;;26.13;2.37;;;24.20;74.90;;;;;;4957454;29;20395;-61
2023/06/28 08:54:27;;;;;;;2.17;2.07;;;24.60;75.40;;;;;;4957697;29;20512;-60
2023/06/28 08:56:56;;;;;;;1.47;1.37;;;25.10;73.40;;;;;;4958037;29;20248;-59
2023/06/28 08:59:22;;;;;;;1.50;1.40;;;25.30;73.00;;;;;;4957828;29;20749;-61
2023/06/28 09:01:50;;;;;;;3.93;2.00;;;25.60;72.00;;;;;;4957640;28;20412;-59
2023/06/28 09:04:17;;;;;;;1.80;1.53;;;25.60;71.20;;;;;;4957827;29;20196;-62
2023/06/28 09:06:43;;;;;;;2.17;1.97;;;25.70;69.70;;;;;;4957202;29;20494;-62
2023/06/28 09:09:09;;;;;;;2.00;1.90;;;25.90;68.50;;;;;;4957523;28;20403;-64
2023/06/28 09:11:36;;;;;;;1.80;1.70;;;25.90;67.70;;;;;;4957589;29;20932;-59
2023/06/28 09:14:02;;;;;;;1.83;1.73;;;25.90;67.30;;;;;;4957641;28;20421;-63
2023/06/28 09:16:27;;;;;;;1.77;1.67;;;26.40;67.30;;;;;;4957246;29;20442;-61
2023/06/28 09:18:53;;;;;;;1.63;1.53;;;26.90;66.00;;;;;;4957141;29;20193;-63
2023/06/28 09:21:26;;;;;;;1.50;1.40;;;27.30;64.40;;;;;;4957392;29;20227;-59
2023/06/28 09:23:51;;;;;;;1.90;1.80;;;28.10;64.20;;;;;;4957046;29;20205;-60
2023/06/28 09:26:17;;;;;;;1.50;1.40;;;29.10;61.70;;;;;;4957643;29;20453;-59
2023/06/28 09:28:42;;;;;;;1.10;1.10;;;30.10;59.60;;;;;;4957189;29;20639;-64
2023/06/28 09:31:08;;;;;;;1.60;1.50;;;31.40;57.80;;;;;;4957485;29;20188;-63
2023/06/28 09:33:34;;;;;;;1.83;1.73;;;32.40;55.10;;;;;;4956522;29;20694;-64
2023/06/28 09:36:02;;;;;;;1.90;1.80;;;32.80;52.80;;;;;;4957114;29;20204;-60
2023/06/28 09:38:28;;;;;;;1.47;1.30;;;32.80;52.80;;;;;;4956884;29;20173;-59
2023/06/28 09:40:57;;;;;;;3.33;1.97;;;32.70;52.10;;;;;;4956975;29;20452;-59
2023/06/28 09:43:24;;;;;;;2.10;2.00;;;33.00;52.00;;;;;;4956434;29;20451;-63
2023/06/28 09:45:52;;;;;;;2.00;1.80;;;33.20;51.40;;;;;;4956908;29;20488;-60
2023/06/28 09:48:22;;;;;;;2.03;1.93;;;33.10;51.00;;;;;;4956888;29;20409;-61
2023/06/28 09:50:48;;;;;;;2.47;2.07;;;32.80;52.20;;;;;;4957000;29;20413;-62
2023/06/28 09:53:16;;;;;;;1.97;1.87;;;32.00;52.40;;;;;;4956382;29;20491;-59
2023/06/28 09:55:43;;;;;;;1.90;1.80;;;31.70;53.10;;;;;;4956946;29;20260;-60
2023/06/28 09:58:12;;;;;;;2.17;2.07;;;31.60;53.40;;;;;;4955353;29;20503;-59
2023/06/28 10:00:42;;;;;;;2.50;2.30;;;32.00;53.20;;;;;;4956779;29;20413;-64
2023/06/28 10:03:10;;;;;;;2.97;2.77;;;32.70;52.10;;;;;;4955822;29;20444;-59
2023/06/28 10:05:38;;;;;;;1.90;1.80;;;33.10;50.40;;;;;;4956498;29;20459;-64
2023/06/28 10:08:11;;;;;;;1.73;1.63;;;32.60;51.70;;;;;;4955179;29;20462;-59
2023/06/28 10:10:38;;;;;;;1.60;1.50;;;32.20;51.90;;;;;;4956462;28;20433;-59
2023/06/28 10:13:09;;;;;;;2.00;1.90;;;32.30;52.60;;;;;;4955180;29;20436;-59
2023/06/28 10:15:45;;;;;;;2.07;1.97;;;32.80;51.70;;;;;;4956387;28;20828;-64
2023/06/28 10:18:12;;;;;;;1.70;1.60;;;33.50;51.10;;;;;;4956569;29;20906;-61
2023/06/28 10:20:41;;;;;;;2.67;1.77;;;34.00;49.90;;;;;;4956498;28;20476;-64
2023/06/28 10:23:11;;;;;;;2.00;1.90;;;34.50;49.20;;;;;;4954462;29;20464;-59
2023/06/28 10:25:41;;;;;;;1.97;1.70;;;34.90;49.30;;;;;;4955950;28;21026;-64
2023/06/28 10:28:08;;;;;;;1.60;1.50;;;35.40;48.80;;;;;;4956197;29;20409;-60
2023/06/28 10:30:33;;;;;;;1.83;1.73;;;35.50;48.10;;;;;;4956239;29;20419;-64
2023/06/28 10:33:00;;;;;;;1.70;1.60;;;35.50;47.00;;;;;;4955441;28;21037;-58
2023/06/28 10:35:26;;;;;;;1.60;1.50;;;35.00;47.10;;;;;;4956525;28;20525;-64
2023/06/28 10:37:59;;;;;;;1.90;1.70;;;34.60;48.40;;;;;;4955034;29;20465;-60
2023/06/28 10:40:25;;;;;;;1.60;1.50;;;34.60;47.70;;;;;;4956100;28;20415;-64
2023/06/28 10:42:51;;;;;;;2.00;1.90;;;34.30;48.40;;;;;;4955442;29;20445;-58
2023/06/28 10:45:30;;;;;;;1.97;1.87;;;34.60;48.70;;;;;;4956220;29;20443;-68
2023/06/28 10:47:56;;;;;;;1.57;1.47;;;34.60;47.80;;;;;;4956143;29;20420;-60
2023/06/28 10:50:22;;;;;;;1.83;1.73;;;34.90;47.30;;;;;;4956199;28;20895;-65
2023/06/28 10:52:56;;;;;;;1.47;1.43;;;34.20;47.70;;;;;;4953965;29;20215;-58
2023/06/28 10:55:31;;;;;;;2.10;2.00;;;33.40;47.80;;;;;;4955959;29;20551;-63
2023/06/28 10:58:08;;;;;;;1.70;1.60;;;33.10;48.90;;;;;;4955665;29;20524;-58
2023/06/28 11:00:36;;;;;;;1.77;1.67;;;32.80;49.20;;;;;;4955947;29;20385;-60
2023/06/28 11:03:04;;;;;;;1.70;1.60;;;32.50;49.00;;;;;;4954774;29;20456;-62
2023/06/28 11:05:38;;;;;;;2.07;1.37;;;31.90;49.00;;;;;;4955750;29;20488;-64
2023/06/28 11:08:14;;;;;;;2.07;1.97;;;31.80;50.20;;;;;;4955646;29;20452;-59
2023/06/28 11:10:42;;;;;;;2.27;2.10;;;31.90;51.00;;;;;;4969881;28;20487;-62
2023/06/28 11:13:12;;;;;;;2.20;2.10;;;32.10;51.20;;;;;;4954348;29;20449;-59
2023/06/28 11:15:45;;;;;;;1.73;1.63;;;32.20;50.50;;;;;;4955545;29;20428;-64
2023/06/28 11:18:19;;;;;;;1.57;1.47;;;31.70;50.60;;;;;;4955463;28;20949;-59
2023/06/28 11:20:51;;;;;;;3.17;1.50;;;31.30;50.80;;;;;;4948177;29;20485;-60
2023/06/28 11:23:36;;;;;;;2.33;1.60;;;30.50;51.10;;;;;;4935841;29;20441;-59
2023/06/28 11:26:07;;;;;;;1.47;1.37;;;29.70;53.20;;;;;;4952498;29;20439;-61
2023/06/28 11:28:34;;;;;;;1.53;1.43;;;29.20;52.10;;;;;;4955196;29;20952;-64
2023/06/28 11:31:22;;;;;;;1.67;1.57;;;28.60;53.10;;;;;;4956667;29;20408;-62
2023/06/28 11:33:48;;;;;;;1.43;1.33;;;27.90;54.30;;;;;;4955251;29;20436;-65
2023/06/28 11:36:14;;;;;;;1.00;1.00;;;27.40;55.20;;;;;;4954575;29;20543;-59
2023/06/28 11:38:46;;;;;;;1.20;1.20;;;27.30;56.20;;;;;;4953978;28;20797;-60
2023/06/28 11:41:15;;;;;;;1.10;1.10;;;27.20;55.60;;;;;;4955620;28;20474;-64
2023/06/28 11:43:44;;;;;;;1.43;1.30;;;27.10;56.00;;;;;;4955182;29;20886;-61
2023/06/28 11:46:09;;;;;;;1.90;1.53;;;27.20;56.20;;;;;;4955580;29;20416;-59
2023/06/28 11:48:35;;;;;;;1.73;1.63;;;27.20;56.20;;;;;;4953625;29;20483;-64
2023/06/28 11:51:04;;;;;;;1.70;1.60;;;27.20;55.80;;;;;;4955422;28;20200;-65
2023/06/28 11:53:31;;;;;;;0.93;0.93;;;27.20;56.30;;;;;;4954975;29;20207;-60
2023/06/28 11:55:58;;;;;;;1.30;1.30;;;27.10;56.50;;;;;;4954833;28;20464;-60
2023/06/28 11:58:31;;;;;;;1.50;1.40;;;27.10;57.00;;;;;;4954866;29;20466;-59
2023/06/28 12:01:05;;;;;;;1.37;1.27;;;27.10;55.90;;;;;;4955033;29;20386;-60
2023/06/28 12:03:38;;;;;;;1.50;1.40;;;27.10;56.50;;;;;;4954647;28;20497;-59
2023/06/28 12:06:06;;;;;;;0.90;0.90;;;27.20;55.80;;;;;;4954779;28;20459;-58
2023/06/28 12:08:34;;;;;;;1.10;1.10;;;27.10;55.70;;;;;;4954633;29;20402;-64
2023/06/28 12:11:01;;;;;;;1.70;1.60;;;27.00;55.70;;;;;;4954983;29;20444;-58
2023/06/28 12:13:28;;;;;;;1.47;1.40;;;27.00;55.60;;;;;;4954488;29;20475;-62
2023/06/28 12:15:54;;;;;;;1.23;1.23;;;26.80;56.80;;;;;;4954964;29;20746;-62
2023/06/28 12:18:20;;;;;;;1.17;1.17;;;26.70;56.70;;;;;;4954612;29;20426;-63
2023/06/28 12:20:45;;;;;;;1.50;1.40;;;26.60;56.90;;;;;;4954629;28;20401;-64
2023/06/28 12:23:14;;;;;;;1.60;1.33;;;26.50;57.60;;;;;;4954446;29;20206;-59
2023/06/28 12:25:41;;;;;;;1.70;1.60;;;26.50;57.80;;;;;;4955034;29;20173;-65
2023/06/28 12:28:08;;;;;;;1.00;0.90;;;26.60;57.90;;;;;;4954665;29;20905;-59
2023/06/28 12:30:34;;;;;;;1.33;1.27;;;26.50;56.80;;;;;;4954972;28;20409;-65
2023/06/28 12:33:05;;;;;;;1.20;1.20;;;26.30;56.80;;;;;;4954293;29;20528;-59
2023/06/28 12:35:31;;;;;;;1.23;1.23;;;26.10;57.20;;;;;;4969789;28;20236;-59
2023/06/28 12:37:58;;;;;;;1.40;1.30;;;25.90;57.40;;;;;;4952660;28;20978;-58
2023/06/28 12:40:28;;;;;;;1.70;1.60;;;25.70;57.70;;;;;;4954335;29;20181;-62
2023/06/28 12:43:13;;;;;;;1.53;1.23;;;25.60;58.30;;;;;;4952214;28;20414;-58
2023/06/28 12:45:48;;;;;;;3.17;1.10;;;25.60;58.90;;;;;;4954687;29;20387;-62
2023/06/28 12:48:16;;;;;;;1.57;1.20;;;25.70;58.00;;;;;;4955366;28;20428;-58
2023/06/28 12:50:50;;;;;;;1.77;1.13;;;25.90;58.80;;;;;;4957104;28;20493;-64
2023/06/28 12:53:16;;;;;;;1.10;1.10;;;26.00;57.30;;;;;;4957563;28;20435;-62
2023/06/28 12:55:42;;;;;;;1.40;1.30;;;25.90;57.20;;;;;;4957614;29;20447;-58
2023/06/28 12:58:08;;;;;;;0.93;0.93;;;25.80;57.20;;;;;;4957694;29;20173;-59
2023/06/28 13:00:35;;;;;;;1.10;1.10;;;25.90;57.80;;;;;;4958163;29;20391;-60
2023/06/28 13:03:02;;;;;;;1.00;1.00;;;26.00;57.40;;;;;;4957541;28;20799;-56
2023/06/28 13:05:28;;;;;;;1.13;1.03;;;26.10;57.50;;;;;;4957887;29;20392;-65
2023/06/28 13:07:53;;;;;;;1.63;0.90;;;26.20;57.90;;;;;;4957470;29;20435;-58
2023/06/28 13:10:19;;;;;;;1.10;1.10;;;26.40;58.20;;;;;;4957773;29;20197;-63
2023/06/28 13:12:45;;;;;;;1.20;1.17;;;26.60;57.90;;;;;;4957102;29;20193;-58
2023/06/28 13:15:11;;;;;;;1.27;1.17;;;26.90;56.60;;;;;;4957712;29;20257;-64
2023/06/28 13:17:36;;;;;;;2.00;1.60;;;27.00;56.20;;;;;;4956254;29;20203;-58
2023/06/28 13:20:02;;;;;;;1.30;1.20;;;27.00;56.00;;;;;;4957421;29;20419;-61
2023/06/28 13:22:28;;;;;;;1.10;1.00;;;26.90;55.50;;;;;;4957044;29;20182;-62
2023/06/28 13:24:53;;;;;;;1.23;1.13;;;26.90;55.60;;;;;;4957629;29;20180;-58
2023/06/28 13:27:19;;;;;;;1.00;1.00;;;26.60;55.90;;;;;;4957344;29;20240;-64
2023/06/28 13:29:44;;;;;;;1.17;1.17;;;26.60;56.50;;;;;;4956961;29;20193;-59
2023/06/28 13:32:10;;;;;;;1.40;1.30;;;26.60;56.60;;;;;;4957070;29;20508;-64
2023/06/28 13:34:35;;;;;;;0.90;0.90;;;26.50;56.30;;;;;;4957416;29;20274;-61
2023/06/28 13:37:01;;;;;;;2.00;1.53;;;26.40;57.40;;;;;;4957067;29;20209;-64
2023/06/28 13:39:27;;;;;;;0.80;0.80;;;26.40;56.90;;;;;;4956818;29;20182;-59
2023/06/28 13:41:52;;;;;;;1.20;1.10;;;26.40;56.40;;;;;;4956780;29;20180;-60
2023/06/28 13:44:18;;;;;;;1.33;1.23;;;26.40;56.50;;;;;;4957190;29;20232;-63
2023/06/28 13:46:43;;;;;;;1.50;1.40;;;26.40;57.10;;;;;;4956303;29;20232;-63
2023/06/28 13:49:09;;;;;;;1.20;1.10;;;26.40;57.80;;;;;;4956557;28;20183;-64
2023/06/28 13:51:35;;;;;;;2.10;1.87;;;26.50;58.50;;;;;;4956839;29;20173;-58
2023/06/28 13:54:00;;;;;;;1.70;1.60;;;26.50;57.70;;;;;;4956608;29;20611;-64
2023/06/28 13:56:26;;;;;;;1.50;1.40;;;26.50;57.80;;;;;;4957003;29;20206;-60
2023/06/28 13:58:52;;;;;;;0.90;0.90;;;26.60;57.20;;;;;;4956726;29;20175;-64
2023/06/28 14:01:17;;;;;;;1.50;1.20;;;26.60;57.50;;;;;;4956045;28;20203;-63
2023/06/28 14:03:43;;;;;;;2.50;1.03;;;26.50;57.20;;;;;;4956247;29;20217;-58
2023/06/28 14:06:08;;;;;;;1.07;1.07;;;26.50;57.20;;;;;;4956665;29;20185;-58
2023/06/28 14:08:34;;;;;;;2.53;1.37;;;26.30;57.40;;;;;;4956086;29;20189;-63
2023/06/28 14:11:00;;;;;;;1.70;1.00;;;26.10;57.40;;;;;;4956249;29;20193;-63
2023/06/28 14:13:25;;;;;;;1.40;1.30;;;26.00;58.20;;;;;;4956237;29;20201;-58
2023/06/28 14:15:51;;;;;;;1.50;1.40;;;26.00;58.30;;;;;;4956356;29;20683;-59
2023/06/28 14:18:16;;;;;;;1.60;1.37;;;26.00;58.90;;;;;;4955919;29;20177;-63
2023/06/28 14:20:42;;;;;;;1.20;1.20;;;26.20;58.40;;;;;;4956206;29;20181;-57
2023/06/28 14:23:08;;;;;;;1.10;1.10;;;26.30;57.80;;;;;;4955897;29;20196;-58
2023/06/28 14:25:33;;;;;;;1.10;1.10;;;26.40;57.60;;;;;;4956226;29;20180;-58
2023/06/28 14:27:59;;;;;;;1.37;1.33;;;26.40;56.80;;;;;;4955791;29;20528;-58
2023/06/28 14:30:24;;;;;;;1.60;1.50;;;26.40;56.80;;;;;;4956123;29;20181;-65
2023/06/28 14:32:55;;;;;;;1.60;1.50;;;26.40;57.40;;;;;;4955674;28;20201;-62
2023/06/28 14:35:21;;;;;;;1.10;1.10;;;26.40;56.80;;;;;;4956179;29;20253;-63
2023/06/28 14:37:47;;;;;;;1.87;1.47;;;26.30;57.50;;;;;;4955485;29;20461;-59
2023/06/28 14:40:13;;;;;;;1.50;1.40;;;26.20;57.50;;;;;;4955703;28;20651;-61
2023/06/28 14:42:39;;;;;;;1.50;1.40;;;26.20;58.20;;;;;;4954098;29;20181;-64
2023/06/28 14:45:09;;;;;;;0.77;0.77;;;26.20;58.40;;;;;;4956031;28;20490;-63
2023/06/28 14:47:34;;;;;;;1.13;1.13;;;26.20;58.00;;;;;;4955578;28;20508;-61
2023/06/28 14:50:00;;;;;;;1.00;1.00;;;26.10;57.80;;;;;;4955387;29;20407;-62
2023/06/28 14:52:26;;;;;;;1.83;1.73;;;26.10;58.70;;;;;;4955115;29;20181;-61
2023/06/28 14:54:51;;;;;;;1.40;1.30;;;26.00;57.90;;;;;;4955844;29;20208;-60
2023/06/28 14:57:17;;;;;;;1.87;1.77;;;26.00;57.90;;;;;;4955312;28;20348;-64
2023/06/28 14:59:43;;;;;;;1.50;1.40;;;26.10;57.60;;;;;;4955628;29;20220;-58
2023/06/28 15:02:08;;;;;;;1.70;1.60;;;26.10;57.40;;;;;;4955146;29;20201;-64
2023/06/28 15:04:34;;;;;;;2.00;1.63;;;26.00;57.40;;;;;;4955451;29;20199;-58
2023/06/28 15:07:02;;;;;;;1.27;1.27;;;25.90;58.40;;;;;;4956075;29;20177;-64
2023/06/28 15:09:28;;;;;;;1.37;1.30;;;25.90;59.10;;;;;;4955283;29;20232;-59
2023/06/28 15:11:53;;;;;;;1.50;1.40;;;25.90;58.50;;;;;;4954926;28;20452;-64
2023/06/28 15:14:19;;;;;;;1.93;1.77;;;25.90;58.30;;;;;;4955627;29;20808;-58
2023/06/28 15:16:47;;;;;;;1.20;1.20;;;25.90;58.20;;;;;;4955291;29;20255;-59
2023/06/28 15:19:13;;;;;;;1.60;1.57;;;25.90;58.60;;;;;;4954792;28;20173;-58
2023/06/28 15:21:38;;;;;;;1.33;1.23;;;25.80;58.40;;;;;;4955669;29;20392;-62
2023/06/28 15:24:04;;;;;;;1.40;1.27;;;25.70;58.40;;;;;;4956043;29;20463;-61
2023/06/28 15:26:30;;;;;;;1.03;1.03;;;25.70;58.90;;;;;;4955620;28;20177;-68
2023/06/28 15:28:58;;;;;;;1.43;1.43;;;25.60;58.90;;;;;;4950521;29;20411;-64
2023/06/28 15:31:23;;;;;;;4.13;1.33;;;25.60;58.80;;;;;;4936531;29;20178;-59
2023/06/28 15:33:49;;;;;;;1.00;1.00;;;25.60;58.40;;;;;;4935667;29;20741;-64
2023/06/28 15:36:15;;;;;;;1.57;1.27;;;25.60;58.70;;;;;;4936249;29;20459;-59
2023/06/28 15:38:41;;;;;;;1.40;1.30;;;25.60;59.40;;;;;;4944985;29;20181;-61
2023/06/28 15:41:06;;;;;;;1.80;1.70;;;25.60;58.50;;;;;;4955234;29;20435;-58
2023/06/28 15:43:32;;;;;;;1.17;1.17;;;25.50;59.30;;;;;;4954584;29;20543;-63
2023/06/28 15:45:58;;;;;;;1.10;1.10;;;25.50;59.80;;;;;;4954856;28;20228;-58
2023/06/28 15:48:24;;;;;;;1.50;1.47;;;25.50;59.80;;;;;;4954980;28;20176;-62
2023/06/28 15:50:49;;;;;;;1.10;1.10;;;25.50;59.90;;;;;;4955185;29;20807;-62
2023/06/28 15:53:15;;;;;;;1.60;1.50;;;25.50;59.30;;;;;;4954796;29;20192;-64
2023/06/28 15:55:41;;;;;;;1.37;1.37;;;25.40;59.40;;;;;;4955060;28;20176;-64
2023/06/28 15:58:07;;;;;;;1.43;1.33;;;25.30;59.40;;;;;;4954805;29;20460;-60
2023/06/28 16:00:32;;;;;;;1.20;1.20;;;25.30;59.20;;;;;;4955333;29;20169;-63
2023/06/28 16:02:58;;;;;;;1.27;1.27;;;25.30;59.70;;;;;;4954482;29;20244;-59
2023/06/28 16:05:23;;;;;;;1.60;1.50;;;25.30;60.90;;;;;;4954999;29;20176;-64
2023/06/28 16:07:52;;;;;;;1.70;1.60;;;25.30;60.80;;;;;;4954234;29;20272;-62
2023/06/28 16:10:21;;;;;;;3.90;1.33;;;25.40;60.40;;;;;;4954675;28;20188;-65
2023/06/28 16:12:47;;;;;;;1.40;1.30;;;25.40;60.20;;;;;;4952712;29;20903;-63
2023/06/28 16:15:13;;;;;;;1.30;1.30;;;25.50;59.60;;;;;;4954660;29;20471;-63
2023/06/28 16:17:39;;;;;;;1.60;1.60;;;25.40;59.60;;;;;;4954276;29;21000;-62
2023/06/28 16:20:06;;;;;;;1.77;1.23;;;25.30;59.90;;;;;;4954458;29;20177;-63
2023/06/28 16:22:32;;;;;;;1.23;1.23;;;25.30;60.40;;;;;;4954820;28;20523;-62
2023/06/28 16:24:58;;;;;;;3.57;1.70;;;25.10;60.30;;;;;;4958137;29;20512;-60
2023/06/28 16:27:23;;;;;;;1.70;1.60;;;25.10;60.40;;;;;;4958531;29;20470;-60
2023/06/28 16:29:49;;;;;;;1.10;1.00;;;25.10;60.30;;;;;;4958315;29;20654;-60
2023/06/28 16:32:15;;;;;;;1.60;1.50;;;25.00;59.90;;;;;;4958097;29;20386;-58
2023/06/28 16:34:41;;;;;;;1.20;1.20;;;25.00;59.70;;;;;;4957929;29;20200;-61
2023/06/28 16:37:10;;;;;;;1.17;1.07;;;24.90;59.70;;;;;;4956847;29;20969;-63
2023/06/28 16:39:36;;;;;;;1.30;1.30;;;24.90;61.40;;;;;;4958283;28;20531;-60
2023/06/28 16:42:06;;;;;;;2.10;1.40;;;24.80;61.70;;;;;;4957961;29;20384;-63
2023/06/28 16:44:32;;;;;;;1.40;1.30;;;24.80;62.20;;;;;;4957822;28;20189;-62
2023/06/28 16:46:58;;;;;;;1.50;1.40;;;24.90;62.80;;;;;;4958179;29;20411;-60
2023/06/28 16:49:25;;;;;;;1.83;1.73;;;24.80;62.50;;;;;;4957985;29;20435;-61
2023/06/28 16:51:51;;;;;;;1.50;1.40;;;24.80;62.60;;;;;;4957623;28;20492;-61
2023/06/28 16:54:16;;;;;;;1.57;1.50;;;24.70;63.90;;;;;;4957643;29;20522;-61
2023/06/28 16:56:42;;;;;;;1.57;1.47;;;24.70;63.60;;;;;;4958024;28;20202;-60
2023/06/28 16:59:08;;;;;;;1.20;1.20;;;24.80;63.00;;;;;;4958147;28;20380;-61
2023/06/28 17:01:34;;;;;;;1.33;1.33;;;24.80;63.00;;;;;;4957370;29;20212;-64
2023/06/28 17:03:59;;;;;;;2.40;2.30;;;24.80;62.90;;;;;;4956232;29;20231;-63
2023/06/28 17:06:25;;;;;;;1.93;1.73;;;24.90;63.00;;;;;;4957893;29;20607;-67
2023/06/28 17:08:51;;;;;;;1.43;1.30;;;25.00;63.40;;;;;;4957596;28;20184;-65
2023/06/28 17:11:17;;;;;;;1.93;1.80;;;25.00;64.10;;;;;;4957959;29;20643;-69
2023/06/28 17:13:43;;;;;;;1.20;1.20;;;25.00;63.80;;;;;;4955809;29;20208;-65
2023/06/28 17:16:09;;;;;;;1.77;1.67;;;25.00;63.00;;;;;;4957634;29;20419;-66
2023/06/28 17:18:34;;;;;;;1.23;1.23;;;24.90;63.10;;;;;;4957111;29;20491;-65
2023/06/28 17:21:00;;;;;;;1.53;1.43;;;24.90;63.50;;;;;;4957713;29;20173;-68
2023/06/28 17:23:26;;;;;;;1.70;1.60;;;24.90;63.50;;;;;;4956993;28;20257;-65
2023/06/28 17:25:52;;;;;;;2.20;1.90;;;24.90;63.70;;;;;;4957461;29;20197;-66
2023/06/28 17:28:23;;;;;;;4.97;2.77;;;24.80;63.40;;;;;;4957135;28;20248;-65
2023/06/28 17:30:49;;;;;;;3.90;2.40;;;24.70;63.60;;;;;;4957480;29;20929;-65
2023/06/28 17:33:15;;;;;;;2.17;1.97;;;24.70;63.90;;;;;;4955369;29;20461;-65
2023/06/28 17:35:41;;;;;;;1.67;1.57;;;24.60;64.00;;;;;;4956211;28;20412;-66
2023/06/28 17:38:07;;;;;;;2.47;1.90;;;24.50;63.90;;;;;;4957045;28;20550;-66
2023/06/28 17:40:32;;;;;;;1.50;1.40;;;24.40;64.00;;;;;;4957323;28;20183;-66
2023/06/28 17:42:58;;;;;;;2.43;2.30;;;24.30;64.00;;;;;;4956556;28;20428;-60
2023/06/28 17:45:24;;;;;;;2.40;2.20;;;24.20;63.80;;;;;;4955990;29;20181;-64
2023/06/28 17:47:51;;;;;;;2.27;2.17;;;24.20;64.30;;;;;;4956730;28;20462;-62
2023/06/28 17:50:18;;;;;;;1.63;1.53;;;24.10;63.90;;;;;;4956788;28;20394;-62
2023/06/28 17:52:44;;;;;;;1.63;1.53;;;24.10;64.20;;;;;;4971333;28;20433;-60
2023/06/28 17:55:09;;;;;;;1.70;1.70;;;24.00;64.80;;;;;;4957129;29;20764;-62
2023/06/28 17:57:35;;;;;;;1.10;1.10;;;24.00;64.50;;;;;;4956412;29;20204;-62
2023/06/28 18:00:00;;;;;;;1.20;1.20;;;24.00;64.40;;;;;;4955392;29;20181;-64
2023/06/28 18:02:28;;;;;;;1.50;1.47;;;23.90;64.40;;;;;;4956210;29;20169;-61
2023/06/28 18:04:53;;;;;;;1.43;1.37;;;23.90;64.00;;;;;;4956749;28;20171;-63
2023/06/28 18:07:19;;;;;;;1.60;1.50;;;23.90;64.10;;;;;;4956154;29;20405;-62
2023/06/28 18:09:45;;;;;;;1.47;1.37;;;23.80;64.10;;;;;;4954993;28;20206;-62
2023/06/28 18:12:12;;;;;;;1.60;1.50;;;23.80;63.90;;;;;;4954660;29;20191;-63
2023/06/28 18:14:39;;;;;;;3.17;1.70;;;23.80;64.20;;;;;;4956367;28;20189;-63
2023/06/28 18:17:06;;;;;;;1.73;1.63;;;23.80;64.60;;;;;;4956348;29;20447;-64
2023/06/28 18:19:32;;;;;;;2.10;2.00;;;23.70;64.90;;;;;;4956718;29;20436;-64
2023/06/28 18:21:58;;;;;;;1.53;1.43;;;23.70;64.70;;;;;;4955670;29;20802;-64
2023/06/28 18:24:23;;;;;;;1.43;1.33;;;23.60;65.20;;;;;;4956102;29;20206;-61
2023/06/28 18:26:49;;;;;;;2.23;2.13;;;23.60;65.80;;;;;;4955039;29;20180;-63
2023/06/28 18:29:15;;;;;;;1.67;1.57;;;23.50;66.00;;;;;;4956119;28;20177;-61
2023/06/28 18:31:41;;;;;;;1.83;1.73;;;23.50;66.60;;;;;;4956066;29;20471;-66
2023/06/28 18:34:07;;;;;;;2.03;1.93;;;23.50;67.00;;;;;;4955828;29;20492;-64
2023/06/28 18:36:32;;;;;;;1.90;1.80;;;23.40;67.60;;;;;;4955742;29;20191;-65
2023/06/28 18:38:58;;;;;;;1.63;1.53;;;23.40;68.00;;;;;;4956049;29;20530;-64
2023/06/28 18:41:23;;;;;;;1.83;1.73;;;23.40;67.70;;;;;;4955997;29;20628;-66
2023/06/28 18:43:49;;;;;;;1.60;1.50;;;23.30;68.00;;;;;;4955241;29;20208;-62
2023/06/28 18:46:15;;;;;;;1.83;1.73;;;23.20;68.20;;;;;;4949224;29;20189;-60
2023/06/28 18:48:40;;;;;;;1.30;1.30;;;23.20;68.40;;;;;;4945037;29;20177;-66
2023/06/28 18:51:06;;;;;;;1.00;1.00;;;23.20;68.50;;;;;;4946348;29;20682;-60
2023/06/28 18:53:32;;;;;;;1.30;1.30;;;23.10;68.70;;;;;;4944525;29;20205;-60